Orsk, Russia
Current Conditions -  °F | °C
As of 8:00 PM on Monday 24 Nov 2014 (Local Time) from UWOR Reporting Station
Clear Clear  
Wind Chill: -13°   Ceiling: Unl
Heat Index:   Visibility: 6mi
Dew Point: -8°   Wind: 9mph
Humidity: 66%   Direction: 290°WNW
Pressure: 30.71"   Gusts: NA
Location:  51.21°N, 58.63°E
Report Text: UWOR 241500Z 29004MPS CAVOK M17/M22 Q1040 25810162 NOSIG RMKQFE756/1008
Loading
Personal Weather Stations






























Interactive Weather Map New forecast layout! Learn more

10-Day Weather Forecast

Advertisements
Track Severe Weather on mobile